createdAt,value
2023-05-16T00:00:57.745Z,34.98
2023-05-16T00:01:57.815Z,35.00
2023-05-16T00:02:57.857Z,35.00
2023-05-16T00:03:57.932Z,35.00
2023-05-16T00:04:57.875Z,35.00
2023-05-16T00:05:57.916Z,35.00
2023-05-16T00:06:57.938Z,35.00
2023-05-16T00:07:58.002Z,35.01
2023-05-16T00:08:58.001Z,34.99
2023-05-16T00:09:58.061Z,35.01
2023-05-16T00:10:58.107Z,35.02
2023-05-16T00:11:58.128Z,35.00
2023-05-16T00:12:58.152Z,35.00
2023-05-16T00:13:58.190Z,35.01
2023-05-16T00:14:58.231Z,34.97
2023-05-16T00:15:58.251Z,35.01
2023-05-16T00:16:58.325Z,35.00
2023-05-16T00:17:58.428Z,35.00
2023-05-16T00:18:58.385Z,35.00
2023-05-16T00:19:58.392Z,35.02
2023-05-16T00:20:58.411Z,35.02
2023-05-16T00:21:58.449Z,35.00
2023-05-16T00:22:58.487Z,35.03
2023-05-16T00:23:58.554Z,35.00
2023-05-16T00:24:58.601Z,34.98
2023-05-16T00:25:58.647Z,34.99
2023-05-16T00:26:58.669Z,35.03
2023-05-16T00:27:58.722Z,35.00
2023-05-16T00:28:58.779Z,35.00
2023-05-16T00:29:58.827Z,34.99
2023-05-16T00:30:58.836Z,35.01
2023-05-16T00:31:58.911Z,35.01
2023-05-16T00:32:58.948Z,35.02
2023-05-16T00:33:58.945Z,34.99
2023-05-16T00:34:58.953Z,35.02
2023-05-16T00:35:58.994Z,35.01
2023-05-16T00:36:59.029Z,35.02
2023-05-16T00:37:59.049Z,35.00
2023-05-16T00:38:59.091Z,35.03
2023-05-16T00:39:59.135Z,35.04
2023-05-16T00:40:59.193Z,35.04
2023-05-16T00:41:59.204Z,35.05
2023-05-16T00:42:59.255Z,35.07
2023-05-16T00:43:59.276Z,35.06
2023-05-16T00:44:59.301Z,35.05
2023-05-16T00:45:59.349Z,35.05
2023-05-16T00:46:59.337Z,35.05
2023-05-16T00:47:59.508Z,35.04
2023-05-16T00:48:59.353Z,35.06
2023-05-16T00:49:59.376Z,35.06
2023-05-16T00:50:59.397Z,35.07
2023-05-16T00:51:59.424Z,35.06
2023-05-16T00:52:59.458Z,35.05
2023-05-16T00:53:59.459Z,35.04
2023-05-16T00:54:59.500Z,35.06
2023-05-16T00:55:59.518Z,35.07
2023-05-16T00:56:59.551Z,35.07
2023-05-16T00:57:59.555Z,35.08
2023-05-16T00:58:59.589Z,35.08
2023-05-16T00:59:59.626Z,35.09
2023-05-16T01:00:59.692Z,35.06
2023-05-16T01:01:59.954Z,35.10
2023-05-16T01:02:59.872Z,35.09
2023-05-16T01:04:00.014Z,35.10
2023-05-16T01:04:59.846Z,35.08
2023-05-16T01:05:59.911Z,35.08
2023-05-16T01:06:59.939Z,35.08
2023-05-16T01:07:59.993Z,35.07
2023-05-16T01:09:00.026Z,35.11
2023-05-16T01:10:00.092Z,35.07
2023-05-16T01:11:00.169Z,35.09
2023-05-16T01:12:00.180Z,35.08
2023-05-16T01:13:00.176Z,35.09
2023-05-16T01:14:00.208Z,35.07
2023-05-16T01:15:00.220Z,35.06
2023-05-16T01:16:00.272Z,35.06
2023-05-16T01:17:00.247Z,35.05
2023-05-16T01:18:00.324Z,35.05
2023-05-16T01:19:00.350Z,35.07
2023-05-16T01:20:00.321Z,35.05
2023-05-16T01:21:00.352Z,35.05
2023-05-16T01:22:00.408Z,35.07
2023-05-16T01:23:00.476Z,35.05
2023-05-16T01:24:00.540Z,35.05
2023-05-16T01:25:00.569Z,35.04
2023-05-16T01:26:00.586Z,35.03
2023-05-16T01:27:00.583Z,35.04
2023-05-16T01:28:00.606Z,35.02
2023-05-16T01:29:00.610Z,35.03
2023-05-16T01:30:00.633Z,35.05
2023-05-16T01:31:00.734Z,35.05
2023-05-16T01:32:00.743Z,35.06
2023-05-16T01:33:00.727Z,35.05
2023-05-16T01:34:00.732Z,35.06
2023-05-16T01:35:00.739Z,35.04
2023-05-16T01:36:00.792Z,35.08
2023-05-16T01:37:00.850Z,35.07
2023-05-16T01:38:00.893Z,35.07
2023-05-16T01:39:00.931Z,35.07
2023-05-16T01:40:00.939Z,35.09
2023-05-16T01:41:01.059Z,35.08
2023-05-16T01:42:01.039Z,35.09
2023-05-16T01:43:01.087Z,35.11
2023-05-16T01:44:01.141Z,35.08
2023-05-16T01:45:01.186Z,35.10
2023-05-16T01:46:01.225Z,35.07
2023-05-16T01:47:01.231Z,35.08
2023-05-16T01:48:01.279Z,35.09
2023-05-16T01:49:01.247Z,35.09
2023-05-16T01:50:01.289Z,35.10
2023-05-16T01:51:01.331Z,35.10
2023-05-16T01:52:01.332Z,35.11
2023-05-16T01:53:01.321Z,35.10
2023-05-16T01:54:01.400Z,35.11
2023-05-16T01:55:01.395Z,35.10
2023-05-16T01:56:01.407Z,35.14
2023-05-16T01:57:01.421Z,35.14
2023-05-16T01:58:01.490Z,35.14
2023-05-16T01:59:01.445Z,35.15
2023-05-16T02:00:01.476Z,35.16
2023-05-16T02:01:01.510Z,35.13
2023-05-16T02:02:01.531Z,35.15
2023-05-16T02:03:01.562Z,35.14
2023-05-16T02:04:01.659Z,35.16
2023-05-16T02:05:01.551Z,35.12
2023-05-16T02:06:01.569Z,35.13
2023-05-16T02:07:01.561Z,35.15
2023-05-16T02:08:01.593Z,35.17
2023-05-16T02:09:01.591Z,35.16
2023-05-16T02:10:01.608Z,35.15
2023-05-16T02:11:01.602Z,35.16
2023-05-16T02:12:01.641Z,35.19
2023-05-16T02:13:01.629Z,35.16
2023-05-16T02:14:01.651Z,35.13
2023-05-16T02:15:01.648Z,35.15
2023-05-16T02:16:01.683Z,35.18
2023-05-16T02:17:01.810Z,35.20
2023-05-16T02:18:01.759Z,35.17
2023-05-16T02:19:01.858Z,35.17
2023-05-16T02:20:01.780Z,35.18
2023-05-16T02:21:01.783Z,35.16
2023-05-16T02:22:01.773Z,35.13
2023-05-16T02:23:01.804Z,35.16
2023-05-16T02:24:01.818Z,35.15
2023-05-16T02:25:01.809Z,35.17
2023-05-16T02:26:01.819Z,35.18
2023-05-16T02:27:01.870Z,35.19
2023-05-16T02:28:01.858Z,35.19
2023-05-16T02:29:01.838Z,35.17
2023-05-16T02:30:01.866Z,35.18
2023-05-16T02:31:01.974Z,35.17
2023-05-16T02:32:01.898Z,35.17
2023-05-16T02:33:01.936Z,35.18
2023-05-16T02:34:01.877Z,35.18
2023-05-16T02:35:01.887Z,35.20
2023-05-16T02:36:01.897Z,35.18
2023-05-16T02:37:01.914Z,35.19
2023-05-16T02:38:01.955Z,35.21
2023-05-16T02:39:02.003Z,35.20
2023-05-16T02:40:02.048Z,35.21
2023-05-16T02:41:02.056Z,35.21
2023-05-16T02:42:02.102Z,35.22
2023-05-16T02:43:02.176Z,35.23
2023-05-16T02:44:02.234Z,35.26
2023-05-16T02:45:02.273Z,35.23
2023-05-16T02:46:02.355Z,35.25
2023-05-16T02:47:02.369Z,35.25
2023-05-16T02:48:02.445Z,35.24
2023-05-16T02:49:02.509Z,35.25
2023-05-16T02:50:02.521Z,35.26
2023-05-16T02:51:02.539Z,35.26
2023-05-16T02:52:02.558Z,35.22
2023-05-16T02:53:02.578Z,35.25
2023-05-16T02:54:02.556Z,35.23
2023-05-16T02:56:02.558Z,35.25
2023-05-16T02:57:02.565Z,35.25
2023-05-16T02:58:02.537Z,35.23
2023-05-16T02:59:02.553Z,35.23
2023-05-16T03:00:02.522Z,35.25
2023-05-16T03:01:02.523Z,35.25
2023-05-16T03:02:02.639Z,35.23
2023-05-16T03:03:02.671Z,35.21
2023-05-16T03:04:02.661Z,35.19
2023-05-16T03:05:02.510Z,35.21
2023-05-16T03:06:02.481Z,35.20
2023-05-16T03:07:02.484Z,35.20
2023-05-16T03:08:02.485Z,35.16
2023-05-16T03:09:02.465Z,35.15
2023-05-16T03:10:02.466Z,35.16
2023-05-16T03:11:02.500Z,35.18
2023-05-16T03:12:02.452Z,35.18
2023-05-16T03:13:02.432Z,35.19
2023-05-16T03:14:02.440Z,35.22
2023-05-16T03:15:02.446Z,35.19
2023-05-16T03:16:02.483Z,35.20
2023-05-16T03:17:02.404Z,35.22
2023-05-16T03:18:02.453Z,35.23
2023-05-16T03:19:02.422Z,35.23
2023-05-16T03:20:02.394Z,35.23
2023-05-16T03:21:02.395Z,35.24
2023-05-16T03:22:02.392Z,35.22
2023-05-16T03:23:02.391Z,35.22
2023-05-16T03:24:02.453Z,35.24
2023-05-16T03:25:02.374Z,35.25
2023-05-16T03:26:02.363Z,35.26
2023-05-16T03:27:02.339Z,35.23
2023-05-16T03:28:02.352Z,35.25
2023-05-16T03:29:02.356Z,35.25
2023-05-16T03:30:02.341Z,35.28
2023-05-16T03:31:02.333Z,35.27
2023-05-16T03:32:02.371Z,35.27
2023-05-16T03:33:02.462Z,35.28
2023-05-16T03:34:02.304Z,35.29
2023-05-16T03:35:02.284Z,35.28
2023-05-16T03:36:02.292Z,35.29
2023-05-16T03:37:02.290Z,35.30
2023-05-16T03:38:02.265Z,35.31
2023-05-16T03:39:02.278Z,35.31
2023-05-16T03:40:02.285Z,35.30
2023-05-16T03:41:02.255Z,35.31
2023-05-16T03:42:02.254Z,35.33
2023-05-16T03:43:02.239Z,35.33
2023-05-16T03:44:02.235Z,35.33
2023-05-16T03:45:02.225Z,35.33
2023-05-16T03:46:02.242Z,35.34
2023-05-16T03:47:02.224Z,35.37
2023-05-16T03:48:02.255Z,35.35
2023-05-16T03:49:02.212Z,35.33
2023-05-16T03:50:02.179Z,35.36
2023-05-16T03:51:02.176Z,35.36
2023-05-16T03:52:02.181Z,35.36
2023-05-16T03:53:02.164Z,35.40
2023-05-16T03:54:02.174Z,35.38
2023-05-16T03:55:02.170Z,35.38
2023-05-16T03:56:02.175Z,35.37
2023-05-16T03:57:02.145Z,35.38
2023-05-16T03:58:02.147Z,35.36
2023-05-16T03:59:02.121Z,35.40
2023-05-16T04:00:02.129Z,35.42
2023-05-16T04:01:02.125Z,35.41
2023-05-16T04:02:02.196Z,35.40
2023-05-16T04:03:02.153Z,35.41
2023-05-16T04:04:02.089Z,35.39
2023-05-16T04:05:02.082Z,35.42
2023-05-16T04:06:02.133Z,35.44
2023-05-16T04:07:02.093Z,35.43
2023-05-16T04:08:02.078Z,35.44
2023-05-16T04:09:02.076Z,35.40
2023-05-16T04:10:02.127Z,35.42
2023-05-16T04:11:02.111Z,35.41
2023-05-16T04:12:02.209Z,35.41
2023-05-16T04:13:02.154Z,35.39
2023-05-16T04:14:02.311Z,35.40
2023-05-16T04:15:02.250Z,35.40
2023-05-16T04:16:02.323Z,35.42
2023-05-16T04:17:02.403Z,35.43
2023-05-16T04:18:02.425Z,35.44
2023-05-16T04:19:02.474Z,35.45
2023-05-16T04:20:02.445Z,35.45
2023-05-16T04:21:02.476Z,35.44
2023-05-16T04:22:02.544Z,35.45
2023-05-16T04:23:02.584Z,35.46
2023-05-16T04:24:03.635Z,35.46
2023-05-16T04:25:02.657Z,35.44
2023-05-16T04:26:02.708Z,35.47
2023-05-16T04:27:02.731Z,35.48
2023-05-16T04:28:02.735Z,35.48
2023-05-16T04:29:02.759Z,35.46
2023-05-16T04:30:02.769Z,35.46
2023-05-16T04:31:54.725Z,35.48
2023-05-16T04:32:54.667Z,35.48
2023-05-16T04:33:54.597Z,35.46
2023-05-16T04:34:54.591Z,35.48
2023-05-16T04:35:54.612Z,35.49
2023-05-16T04:36:54.594Z,35.48
2023-05-16T04:37:54.586Z,35.49
2023-05-16T04:38:54.585Z,35.50
2023-05-16T04:39:54.560Z,35.50
2023-05-16T04:40:54.568Z,35.54
2023-05-16T04:41:54.554Z,35.52
2023-05-16T04:42:54.553Z,35.55
2023-05-16T04:43:54.530Z,35.54
2023-05-16T04:44:54.541Z,35.53
2023-05-16T04:45:54.600Z,35.56
2023-05-16T04:46:54.570Z,35.55
2023-05-16T04:47:54.535Z,35.56
2023-05-16T04:48:54.508Z,35.55
2023-05-16T04:49:54.499Z,35.55
2023-05-16T04:50:54.487Z,35.54
2023-05-16T04:51:54.482Z,35.54
2023-05-16T04:52:56.419Z,35.56
2023-05-16T04:53:54.466Z,35.56
2023-05-16T04:54:54.451Z,35.57
2023-05-16T04:55:54.449Z,35.58
2023-05-16T04:56:54.436Z,35.55
2023-05-16T04:57:54.450Z,35.56
2023-05-16T04:58:54.451Z,35.55
2023-05-16T04:59:54.439Z,35.56
2023-05-16T05:00:54.467Z,35.56
2023-05-16T05:01:54.522Z,35.63
2023-05-16T05:02:54.518Z,35.59
2023-05-16T05:03:54.387Z,35.58
2023-05-16T05:04:54.418Z,35.58
2023-05-16T05:05:54.430Z,35.61
2023-05-16T05:06:54.382Z,35.58
2023-05-16T05:07:54.380Z,35.64
2023-05-16T05:08:54.363Z,35.62
2023-05-16T05:09:54.357Z,35.64
2023-05-16T05:10:54.349Z,35.66
2023-05-16T05:11:54.343Z,35.67
2023-05-16T05:12:54.327Z,35.67
2023-05-16T05:13:54.328Z,35.64
2023-05-16T05:14:54.358Z,35.66
2023-05-16T05:15:54.353Z,35.64
2023-05-16T05:16:54.351Z,35.68
2023-05-16T05:17:54.441Z,35.67
2023-05-16T05:18:54.462Z,35.63
2023-05-16T05:19:54.359Z,35.64
2023-05-16T05:20:54.368Z,35.64
2023-05-16T05:21:54.373Z,35.66
2023-05-16T05:22:54.354Z,35.70
2023-05-16T05:23:54.400Z,35.68
2023-05-16T05:24:54.388Z,35.67
2023-05-16T05:25:54.380Z,35.68
2023-05-16T05:26:54.381Z,35.68
2023-05-16T05:27:54.413Z,35.68
2023-05-16T05:29:04.684Z,36.15
2023-05-16T05:29:55.434Z,36.57
2023-05-16T05:30:54.422Z,36.63
2023-05-16T05:31:54.476Z,37.04
2023-05-16T05:32:54.449Z,37.02
2023-05-16T05:33:54.412Z,37.04
2023-05-16T05:34:54.385Z,37.30
2023-05-16T05:35:54.827Z,37.33
2023-05-16T05:36:54.415Z,37.99
2023-05-16T05:37:54.382Z,38.13
2023-05-16T05:38:54.380Z,37.98
2023-05-16T05:39:54.358Z,38.02
2023-05-16T05:40:54.835Z,38.56
2023-05-16T05:41:54.385Z,38.52
2023-05-16T05:42:54.384Z,38.50
2023-05-16T05:43:54.438Z,38.36
2023-05-16T05:44:54.503Z,38.40
2023-05-16T05:45:54.848Z,38.51
2023-05-16T05:46:54.568Z,38.50
2023-05-16T05:47:54.633Z,38.53
2023-05-16T05:48:54.616Z,39.20
2023-05-16T05:49:54.648Z,38.91
2023-05-16T05:50:54.863Z,38.88
2023-05-16T05:51:54.699Z,38.82
2023-05-16T05:52:54.741Z,38.85
2023-05-16T05:53:54.863Z,38.82
2023-05-16T05:54:54.762Z,38.70
2023-05-16T05:55:54.795Z,38.57
2023-05-16T05:56:54.781Z,38.30
2023-05-16T05:57:54.781Z,38.58
2023-05-16T05:58:54.810Z,38.48
2023-05-16T05:59:54.875Z,38.63
2023-05-16T06:00:54.870Z,38.81
2023-05-16T06:01:54.922Z,38.68
2023-05-16T06:02:55.157Z,38.60
2023-05-16T06:03:54.921Z,38.57
2023-05-16T06:04:55.027Z,38.40
2023-05-16T06:05:55.084Z,38.48
2023-05-16T06:06:55.192Z,38.59
2023-05-16T06:07:55.086Z,38.53
2023-05-16T06:08:55.136Z,38.46
2023-05-16T06:09:55.169Z,38.76
2023-05-16T06:10:55.364Z,38.75
2023-05-16T06:11:55.200Z,38.77
2023-05-16T06:12:55.219Z,38.76
2023-05-16T06:13:55.343Z,38.76
2023-05-16T06:14:55.421Z,38.75
2023-05-16T06:15:55.362Z,38.77
2023-05-16T06:16:55.438Z,38.76
2023-05-16T06:17:55.592Z,38.84
2023-05-16T06:18:55.511Z,38.72
2023-05-16T06:19:55.449Z,38.73
2023-05-16T06:20:55.464Z,38.72
2023-05-16T06:21:55.485Z,38.65
2023-05-16T06:22:55.491Z,38.69
2023-05-16T06:23:55.500Z,38.64
2023-05-16T06:24:55.499Z,38.69
2023-05-16T06:25:55.495Z,38.73
2023-05-16T06:26:55.522Z,38.77
2023-05-16T06:27:55.554Z,38.81
2023-05-16T06:28:55.630Z,38.82
2023-05-16T06:29:55.643Z,38.85
2023-05-16T06:30:55.900Z,38.66
2023-05-16T06:31:55.764Z,38.88
2023-05-16T06:32:55.777Z,38.90
2023-05-16T06:33:55.754Z,38.80
2023-05-16T06:34:55.745Z,39.11
2023-05-16T06:35:55.862Z,38.76
2023-05-16T06:36:55.839Z,38.74
2023-05-16T06:37:55.880Z,38.73
2023-05-16T06:38:55.937Z,38.68
2023-05-16T06:39:55.972Z,38.59
2023-05-16T06:40:56.359Z,38.72
2023-05-16T06:41:56.747Z,38.57
2023-05-16T06:42:56.015Z,38.70
2023-05-16T06:43:56.097Z,38.64
2023-05-16T06:44:56.110Z,38.48
2023-05-16T06:45:56.168Z,38.58
2023-05-16T06:46:56.223Z,38.54
2023-05-16T06:47:57.386Z,38.59
2023-05-16T06:48:56.283Z,38.63
2023-05-16T06:49:56.313Z,38.45
2023-05-16T06:50:56.380Z,38.57
2023-05-16T06:51:56.377Z,38.54
2023-05-16T06:52:56.409Z,38.49
2023-05-16T06:53:56.462Z,38.57
2023-05-16T06:54:56.452Z,38.58
2023-05-16T06:55:56.464Z,38.51
2023-05-16T06:56:56.496Z,38.49
2023-05-16T06:57:56.536Z,38.51
2023-05-16T06:58:56.575Z,38.54
2023-05-16T06:59:56.619Z,38.54
2023-05-16T07:00:56.669Z,38.44
2023-05-16T07:01:56.689Z,38.38
2023-05-16T07:02:56.797Z,38.43
2023-05-16T07:03:56.968Z,38.51
2023-05-16T07:04:56.736Z,38.26
2023-05-16T07:05:56.796Z,38.46
2023-05-16T07:06:56.841Z,38.28
2023-05-16T07:07:56.850Z,38.17
2023-05-16T07:08:56.867Z,38.17
2023-05-16T07:09:56.887Z,38.14
2023-05-16T07:10:57.411Z,37.95
2023-05-16T07:11:56.959Z,37.56
2023-05-16T07:12:57.018Z,37.77
2023-05-16T07:13:57.086Z,37.58
2023-05-16T07:14:57.143Z,37.57
2023-05-16T07:15:57.228Z,37.74
2023-05-16T07:16:57.256Z,37.38
2023-05-16T07:17:57.472Z,37.59
2023-05-16T07:18:57.450Z,37.48
2023-05-16T07:19:57.393Z,37.36
2023-05-16T07:20:57.889Z,37.27
2023-05-16T07:21:57.445Z,37.18
2023-05-16T07:22:57.536Z,37.33
2023-05-16T07:23:57.488Z,37.20
2023-05-16T07:24:57.486Z,37.32
2023-05-16T07:25:57.888Z,37.29
2023-05-16T07:26:57.551Z,37.15
2023-05-16T07:27:57.598Z,37.13
2023-05-16T07:28:57.633Z,37.35
2023-05-16T07:29:57.671Z,37.29
2023-05-16T07:30:57.716Z,37.17
2023-05-16T07:31:57.808Z,36.97
2023-05-16T07:32:57.874Z,36.43
2023-05-16T07:33:58.133Z,36.42
2023-05-16T07:34:57.863Z,36.74
2023-05-16T07:36:14.844Z,36.30
2023-05-16T07:36:58.909Z,36.10
2023-05-16T07:37:57.937Z,36.04
2023-05-16T07:38:58.395Z,36.29
2023-05-16T07:39:57.876Z,36.54
2023-05-16T07:40:58.443Z,36.63
2023-05-16T07:41:57.867Z,36.73
2023-05-16T07:42:57.909Z,36.81
2023-05-16T07:43:57.870Z,36.89
2023-05-16T07:44:57.844Z,36.95
2023-05-16T07:45:57.891Z,36.99
2023-05-16T07:46:57.816Z,37.10
2023-05-16T07:47:57.870Z,37.16
2023-05-16T07:48:57.810Z,37.18
2023-05-16T07:49:57.808Z,37.20
2023-05-16T07:50:57.827Z,37.20
2023-05-16T07:51:57.823Z,37.32
2023-05-16T07:52:57.816Z,37.40
2023-05-16T07:53:57.798Z,37.44
2023-05-16T07:54:57.810Z,37.48
2023-05-16T07:55:57.868Z,37.50
2023-05-16T07:56:57.851Z,37.52
2023-05-16T07:57:57.877Z,37.53
2023-05-16T07:58:57.909Z,37.53
2023-05-16T07:59:57.907Z,37.57
2023-05-16T08:00:57.947Z,37.58
2023-05-16T08:01:57.971Z,37.64
2023-05-16T08:02:58.061Z,37.63
2023-05-16T08:03:58.086Z,37.62
2023-05-16T08:04:58.072Z,37.68
2023-05-16T08:05:58.197Z,37.71
2023-05-16T08:06:58.127Z,37.73
2023-05-16T08:07:58.142Z,37.75
2023-05-16T08:08:58.186Z,37.81
2023-05-16T08:09:58.231Z,37.79
2023-05-16T08:10:58.221Z,37.80
2023-05-16T08:11:58.222Z,37.81
2023-05-16T08:12:58.246Z,37.83
2023-05-16T08:13:58.276Z,37.83
2023-05-16T08:14:58.313Z,37.85
2023-05-16T08:15:58.449Z,37.86
2023-05-16T08:16:58.427Z,37.87
2023-05-16T08:17:58.647Z,37.83
2023-05-16T08:18:58.545Z,37.86
2023-05-16T08:19:58.546Z,38.23
2023-05-16T08:20:58.890Z,38.55
2023-05-16T08:21:58.625Z,39.23
2023-05-16T08:22:58.630Z,39.15
2023-05-16T08:23:58.698Z,39.14
2023-05-16T08:24:58.699Z,39.20
2023-05-16T08:25:58.757Z,40.11
2023-05-16T08:26:58.752Z,40.08
2023-05-16T08:27:58.792Z,39.68
2023-05-16T08:28:58.833Z,40.45
2023-05-16T08:29:58.821Z,41.13
2023-05-16T08:30:58.877Z,41.86
2023-05-16T08:31:59.142Z,41.73
2023-05-16T08:32:58.940Z,42.51
2023-05-16T08:33:58.935Z,42.49
2023-05-16T08:34:58.976Z,42.50
2023-05-16T08:35:59.426Z,42.15
2023-05-16T08:36:59.450Z,42.28
2023-05-16T08:37:59.157Z,41.99
2023-05-16T08:38:59.105Z,41.73
2023-05-16T08:39:59.126Z,41.18
2023-05-16T08:40:59.405Z,40.84
2023-05-16T08:41:59.212Z,40.68
2023-05-16T08:42:59.237Z,40.78
2023-05-16T08:43:59.263Z,41.00
2023-05-16T08:44:59.288Z,40.93
2023-05-16T08:45:59.421Z,40.93
2023-05-16T08:46:59.339Z,40.92
2023-05-16T08:47:59.419Z,40.78
2023-05-16T08:48:59.327Z,41.06
2023-05-16T08:49:59.366Z,40.78
2023-05-16T08:50:59.418Z,41.03
2023-05-16T08:51:59.418Z,40.74
2023-05-16T08:52:59.481Z,40.75
2023-05-16T08:53:59.505Z,40.82
2023-05-16T08:55:10.339Z,40.69
2023-05-16T08:56:00.934Z,40.72
2023-05-16T08:56:59.511Z,40.71
2023-05-16T08:57:59.509Z,40.81
2023-05-16T08:58:59.501Z,40.38
2023-05-16T08:59:59.493Z,40.76
2023-05-16T09:00:59.976Z,40.61
2023-05-16T09:01:59.494Z,40.68
2023-05-16T09:02:59.486Z,40.47
2023-05-16T09:03:59.472Z,40.42
2023-05-16T09:04:59.447Z,40.32
2023-05-16T09:05:59.943Z,40.29
2023-05-16T09:06:59.440Z,40.42
2023-05-16T09:07:59.446Z,40.19
2023-05-16T09:08:59.412Z,39.62
2023-05-16T09:09:59.448Z,39.76
2023-05-16T09:10:59.456Z,39.51
2023-05-16T09:11:59.405Z,39.58
2023-05-16T09:12:59.415Z,39.65
2023-05-16T09:13:59.431Z,39.25
2023-05-16T09:14:59.477Z,39.44
2023-05-16T09:15:59.928Z,39.50
2023-05-16T09:16:59.520Z,39.40
2023-05-16T09:17:59.801Z,39.38
2023-05-16T09:18:59.637Z,39.65
2023-05-16T09:19:59.628Z,39.47
2023-05-16T09:20:59.661Z,39.73
2023-05-16T09:21:59.918Z,39.96
2023-05-16T09:22:59.683Z,39.22
2023-05-16T09:23:59.725Z,39.23
2023-05-16T09:24:59.794Z,39.58
2023-05-16T09:25:59.983Z,40.06
2023-05-16T09:26:59.881Z,40.06
2023-05-16T09:27:59.926Z,40.42
2023-05-16T09:28:59.951Z,40.90
2023-05-16T09:29:59.999Z,40.43
2023-05-16T09:31:00.461Z,40.40
2023-05-16T09:32:00.438Z,40.36
2023-05-16T09:33:00.265Z,40.35
2023-05-16T09:34:00.191Z,40.43
2023-05-16T09:35:00.227Z,40.32
2023-05-16T09:36:00.294Z,39.87
2023-05-16T09:37:00.486Z,39.27
2023-05-16T09:38:00.530Z,38.88
2023-05-16T09:39:00.318Z,38.37
2023-05-16T09:40:00.385Z,38.47
2023-05-16T09:41:00.398Z,38.46
2023-05-16T09:42:00.431Z,38.19
2023-05-16T09:43:00.492Z,38.02
2023-05-16T09:44:00.509Z,37.94
2023-05-16T09:45:03.445Z,38.08
2023-05-16T09:46:00.907Z,38.74
2023-05-16T09:47:00.522Z,38.87
2023-05-16T09:48:00.565Z,38.90
2023-05-16T09:49:00.525Z,39.01
2023-05-16T09:50:00.513Z,39.12
2023-05-16T09:51:02.780Z,39.15
2023-05-16T09:52:01.008Z,39.23
2023-05-16T09:53:00.460Z,39.18
2023-05-16T09:54:00.588Z,39.24
2023-05-16T09:55:00.570Z,39.25
2023-05-16T09:56:00.571Z,39.23
2023-05-16T09:57:02.836Z,39.26
2023-05-16T09:58:00.816Z,39.31
2023-05-16T09:59:00.844Z,39.38
2023-05-16T10:00:00.904Z,39.51
2023-05-16T10:01:00.925Z,39.51
2023-05-16T10:02:01.011Z,39.53
2023-05-16T10:03:04.004Z,39.51
2023-05-16T10:04:01.027Z,39.54
2023-05-16T10:05:00.972Z,39.50
2023-05-16T10:06:00.985Z,39.54
2023-05-16T10:07:00.941Z,39.55
2023-05-16T10:08:00.948Z,39.58
2023-05-16T10:09:02.929Z,39.59
2023-05-16T10:10:00.921Z,39.62
2023-05-16T10:11:00.915Z,39.66
2023-05-16T10:12:00.900Z,39.67
2023-05-16T10:13:00.922Z,39.73
2023-05-16T10:14:00.898Z,39.80
2023-05-16T10:15:00.894Z,39.78
2023-05-16T10:16:00.959Z,39.76
2023-05-16T10:17:00.930Z,39.75
2023-05-16T10:18:00.998Z,39.72
2023-05-16T10:19:01.057Z,39.66
2023-05-16T10:20:01.463Z,39.68
2023-05-16T10:21:01.047Z,39.67
2023-05-16T10:22:01.141Z,39.64
2023-05-16T10:23:01.107Z,39.85
2023-05-16T10:24:01.146Z,39.83
2023-05-16T10:25:01.464Z,40.07
2023-05-16T10:26:01.483Z,40.04
2023-05-16T10:27:01.255Z,39.90
2023-05-16T10:28:01.320Z,39.66
2023-05-16T10:29:01.427Z,39.72
2023-05-16T10:30:01.308Z,39.70
2023-05-16T10:31:01.589Z,39.93
2023-05-16T10:32:01.412Z,39.89
2023-05-16T10:33:01.470Z,39.94
2023-05-16T10:34:01.460Z,39.96
2023-05-16T10:35:01.504Z,39.93
2023-05-16T10:36:02.946Z,39.91
2023-05-16T10:37:01.581Z,39.89
2023-05-16T10:38:01.601Z,39.85
2023-05-16T10:39:01.626Z,39.87
2023-05-16T10:40:01.655Z,39.84
2023-05-16T10:41:01.685Z,39.84
2023-05-16T10:42:01.937Z,39.78
2023-05-16T10:43:01.770Z,39.77
2023-05-16T10:44:01.817Z,39.82
2023-05-16T10:45:05.469Z,39.91
2023-05-16T10:46:02.490Z,39.95
2023-05-16T10:47:02.005Z,39.90
2023-05-16T10:48:01.913Z,39.91
2023-05-16T10:49:01.939Z,39.97
2023-05-16T10:50:01.935Z,40.02
2023-05-16T10:51:02.081Z,39.92
2023-05-16T10:52:01.836Z,39.89
2023-05-16T10:53:01.922Z,39.76
2023-05-16T10:54:01.816Z,39.69
2023-05-16T10:55:01.797Z,39.57
2023-05-16T10:56:01.903Z,39.37
2023-05-16T10:57:01.801Z,39.34
2023-05-16T10:58:01.782Z,39.09
2023-05-16T10:59:01.780Z,39.27
2023-05-16T11:00:01.953Z,39.25
2023-05-16T11:01:02.816Z,39.19
2023-05-16T11:02:02.086Z,39.24
2023-05-16T11:03:01.847Z,39.18
2023-05-16T11:04:02.011Z,38.87
2023-05-16T11:05:01.773Z,38.89
2023-05-16T11:06:01.963Z,38.95
2023-05-16T11:07:01.959Z,38.96
2023-05-16T11:08:01.718Z,38.98
2023-05-16T11:09:01.694Z,38.84
2023-05-16T11:10:01.685Z,38.82
2023-05-16T11:11:01.717Z,38.78
2023-05-16T11:12:01.677Z,38.77
2023-05-16T11:13:01.704Z,38.84
2023-05-16T11:14:01.756Z,38.68
2023-05-16T11:15:01.825Z,38.58
2023-05-16T11:16:01.818Z,38.98
2023-05-16T11:17:01.993Z,38.66
2023-05-16T11:18:01.929Z,38.60
2023-05-16T11:19:01.942Z,38.84
2023-05-16T11:20:01.927Z,38.66
2023-05-16T11:21:01.959Z,38.98
2023-05-16T11:22:02.473Z,38.95
2023-05-16T11:23:02.040Z,38.44
2023-05-16T11:24:02.104Z,38.27
2023-05-16T11:25:02.171Z,37.94
2023-05-16T11:26:02.175Z,38.21
2023-05-16T11:27:02.492Z,38.02
2023-05-16T11:28:02.261Z,37.78
2023-05-16T11:29:02.314Z,37.86
2023-05-16T11:30:03.995Z,37.49
2023-05-16T11:31:02.429Z,37.49
2023-05-16T11:32:02.626Z,37.44
2023-05-16T11:33:02.661Z,37.44
2023-05-16T11:34:02.726Z,37.87
2023-05-16T11:35:02.552Z,37.64
2023-05-16T11:36:14.463Z,37.48
2023-05-16T11:37:03.616Z,37.71
2023-05-16T11:38:02.619Z,37.73
2023-05-16T11:39:02.587Z,37.73
2023-05-16T11:40:02.783Z,37.52
2023-05-16T11:41:02.581Z,37.56
2023-05-16T11:42:02.575Z,37.59
2023-05-16T11:43:02.925Z,37.49
2023-05-16T11:44:02.577Z,37.59
2023-05-16T11:45:02.574Z,37.52
2023-05-16T11:46:02.588Z,37.39
2023-05-16T11:47:02.721Z,37.47
2023-05-16T11:48:02.666Z,37.27
2023-05-16T11:49:02.619Z,37.44
2023-05-16T11:50:02.729Z,37.38
2023-05-16T11:51:02.709Z,37.34
2023-05-16T11:52:02.758Z,37.48
2023-05-16T11:53:02.803Z,37.48
2023-05-16T11:54:02.829Z,37.26
2023-05-16T11:55:02.818Z,37.42
2023-05-16T11:56:02.858Z,37.44
2023-05-16T11:57:02.911Z,37.42
2023-05-16T11:58:02.926Z,37.52
2023-05-16T11:59:02.952Z,37.47
2023-05-16T12:00:02.970Z,37.44
2023-05-16T12:01:03.005Z,37.44
2023-05-16T12:02:03.061Z,37.40
2023-05-16T12:03:03.173Z,37.41
2023-05-16T12:04:03.279Z,37.33
2023-05-16T12:05:03.185Z,37.46
2023-05-16T12:06:03.185Z,37.42
2023-05-16T12:07:03.117Z,37.43
2023-05-16T12:08:03.154Z,37.67
2023-05-16T12:09:03.174Z,37.48
2023-05-16T12:10:03.187Z,37.53
2023-05-16T12:11:03.205Z,37.40
2023-05-16T12:12:03.225Z,37.42
2023-05-16T12:13:03.274Z,37.46
2023-05-16T12:14:03.302Z,37.56
2023-05-16T12:15:03.324Z,37.59
2023-05-16T12:16:03.382Z,37.62
2023-05-16T12:17:03.501Z,37.65
2023-05-16T12:18:03.606Z,37.68
2023-05-16T12:19:03.492Z,37.75
2023-05-16T12:20:03.479Z,37.75
2023-05-16T12:21:03.528Z,37.79
2023-05-16T12:22:03.619Z,37.76
2023-05-16T12:23:03.548Z,37.79
2023-05-16T12:24:03.562Z,37.82
2023-05-16T12:25:03.603Z,37.87
2023-05-16T12:26:03.615Z,37.91
2023-05-16T12:27:03.696Z,38.03
2023-05-16T12:28:03.746Z,38.05
2023-05-16T12:29:03.740Z,38.10
2023-05-16T12:30:03.715Z,38.08
2023-05-16T12:31:03.737Z,38.08
2023-05-16T12:32:03.794Z,38.10
2023-05-16T12:33:06.995Z,38.11
2023-05-16T12:34:03.817Z,38.14
2023-05-16T12:35:03.803Z,38.21
2023-05-16T12:36:03.791Z,38.21
2023-05-16T12:37:03.800Z,38.31
2023-05-16T12:38:03.772Z,38.32
2023-05-16T12:39:03.760Z,38.35
2023-05-16T12:40:03.796Z,38.30
2023-05-16T12:41:03.742Z,38.31
2023-05-16T12:42:03.733Z,38.28
2023-05-16T12:43:03.738Z,38.23
2023-05-16T12:44:03.733Z,38.25
2023-05-16T12:45:03.722Z,38.20
2023-05-16T12:46:03.763Z,38.09
2023-05-16T12:47:03.728Z,38.11
2023-05-16T12:48:03.728Z,38.06
2023-05-16T12:49:03.709Z,38.09
2023-05-16T12:50:03.677Z,38.07
2023-05-16T12:51:03.680Z,38.12
2023-05-16T12:52:03.682Z,38.07
2023-05-16T12:53:03.674Z,38.00
2023-05-16T12:54:10.109Z,37.93
2023-05-16T12:55:04.655Z,37.98